Schenectady, NY (12301)

3:49 AM EDT on August 29, 2015 (GMT -0400)
APRSWXNET | | Change Station
CLOSE
Current Station
Personal Weather Station
Location: Schenectady, NY
Elevation: 344 ft
Nearby Weather Stations

Elev 344 ft 42.82 °N, 73.93 °W | Updated 29 minutes ago

Mostly Cloudy
Mostly Cloudy
59 °F
Feels Like 59 °F
N
0
Wind Variable Wind from WSW
Gusts 1.0 mph

Today
High -- | Low -- °F
--% Chance of Precip.
Yesterday
High -- | Low -- °F
Precip. -- in
6:16 AM 7:35 PM
Full, 100% visible
Pressure 30.19 in
Visibility 10.0 miles
Clouds Mostly Cloudy 26000 ft
Dew Point 55 °F
Humidity 86%
Rainfall in
Snow Depth Not available.
UV 0 out of 12
Pollen 9.10 out of 12
Air Quality Not available.
Flu Activity Not available.
METAR KALB 290651Z 00000KT 10SM BKN260 14/12 A3019 RMK AO2 SLP222 T01390117
Pressure 30.19 in
Visibility 10.0 miles
Clouds Mostly Cloudy 26000 ft
Dew Point 55 °F
Humidity 86%
Rainfall in
Snow Depth Not available.
UV 0 out of 12
Pollen 9.10 out of 12
Air Quality Not available.
Flu Activity Not available.
METAR KALB 290651Z 00000KT 10SM BKN260 14/12 A3019 RMK AO2 SLP222 T01390117

10-Day Weather Forecast

×

Almanac

Astronomy

Aug. 29, 2015 Rise Set
Actual Time
Civil Twilight
Nautical Twilight
Astronomical Twilight
Moon
Length of Visible Light
Length of Day
Tomorrow will be .
, % of the Moon is Illuminated

Today's Extremes

State Highs State Lows

Community

WunderPhotos

Upload Photos

1,850,634 photos uploaded!

WunderBlogs® & News

Nearby

Air Quality

  Air Quality AQ Index Pollutant
Not available.

Snow Depth

Station Depth Elevation

Earthquake Activity

City Distance Mag. Time & Date
Minimum magnitude displayed is 2.5.

Coastal Water Temperatures

Place Temperature

Stations

Nearby Weather Stations

Station Location Temp. Windchill Dew Point Humidity Wind Precip. Elev Updated Type